Time;durP1;ratioP1;P1;durP2;ratioP2;P2;SDS_P1;SDS_P2;PMS_P1;PMS_P2;Temp;Humidity;BMP_temperature;BMP_pressure;BME280_temperature;BME280_humidity;BME280_pressure;Samples;Min_cycle;Max_cycle;Signal;HPM_P1;HPM_P2
2023/02/03 00:02:02;;;;;;;17.92;14.27;;;10.10;99.90;;;;;;5014054;28;20045;-84
2023/02/03 00:04:28;;;;;;;14.75;13.35;;;10.10;99.90;;;;;;5035331;28;20394;-85
2023/02/03 00:06:55;;;;;;;16.38;14.65;;;10.20;99.90;;;;;;5017280;28;20029;-84
2023/02/03 00:09:21;;;;;;;15.20;13.98;;;10.30;99.90;;;;;;5006711;28;20422;-84
2023/02/03 00:11:47;;;;;;;14.60;13.27;;;10.20;99.90;;;;;;5013182;28;20037;-84
2023/02/03 00:14:13;;;;;;;15.80;14.05;;;10.30;99.90;;;;;;5000287;28;20034;-84
2023/02/03 00:16:39;;;;;;;15.25;13.85;;;10.30;99.90;;;;;;5016094;28;20068;-84
2023/02/03 00:19:05;;;;;;;15.05;13.52;;;10.20;99.90;;;;;;5033613;28;20033;-84
2023/02/03 00:21:32;;;;;;;14.75;13.35;;;10.10;99.90;;;;;;5033081;28;20072;-84
2023/02/03 00:23:58;;;;;;;15.50;14.00;;;10.20;99.90;;;;;;5016869;28;20040;-84
2023/02/03 00:26:27;;;;;;;15.02;13.45;;;10.20;99.90;;;;;;5000231;28;20041;-85
2023/02/03 00:28:53;;;;;;;14.60;13.48;;;10.10;99.90;;;;;;5001307;28;20030;-84
2023/02/03 00:31:21;;;;;;;14.35;12.80;;;10.10;99.90;;;;;;5009694;28;20041;-84
2023/02/03 00:33:47;;;;;;;14.05;12.77;;;10.20;99.90;;;;;;5011934;28;20029;-83
2023/02/03 00:36:13;;;;;;;14.20;13.00;;;10.20;99.90;;;;;;4996526;28;20387;-84
2023/02/03 00:38:39;;;;;;;14.55;13.25;;;10.30;99.90;;;;;;4997002;28;20037;-85
2023/02/03 00:41:06;;;;;;;15.23;13.57;;;10.30;99.90;;;;;;4985450;28;20034;-84
2023/02/03 00:43:32;;;;;;;15.55;13.77;;;10.30;99.90;;;;;;5027952;28;20037;-84
2023/02/03 00:45:58;;;;;;;14.30;12.95;;;10.30;99.90;;;;;;5011770;28;20041;-84
2023/02/03 00:48:24;;;;;;;14.82;13.40;;;10.30;99.90;;;;;;4996752;28;20034;-84
2023/02/03 00:50:50;;;;;;;14.93;13.60;;;10.30;99.90;;;;;;5014976;28;20069;-85
2023/02/03 00:53:16;;;;;;;14.82;13.52;;;10.30;99.90;;;;;;5006102;28;20033;-85
2023/02/03 00:55:43;;;;;;;15.25;13.85;;;10.20;99.90;;;;;;5015834;28;20042;-84
2023/02/03 00:58:09;;;;;;;14.75;13.40;;;10.10;99.90;;;;;;5016220;28;20029;-84
2023/02/03 01:00:35;;;;;;;14.57;13.30;;;10.20;99.90;;;;;;5013465;28;20049;-84
2023/02/03 01:03:02;;;;;;;15.40;13.85;;;10.10;99.90;;;;;;5015892;28;20387;-84
2023/02/03 01:05:28;;;;;;;15.55;14.02;;;10.20;99.90;;;;;;5015199;28;20049;-84
2023/02/03 01:07:54;;;;;;;14.85;13.35;;;10.20;99.90;;;;;;5031819;28;21234;-84
2023/02/03 01:10:20;;;;;;;14.75;13.25;;;10.20;99.90;;;;;;5014558;28;20037;-85
2023/02/03 01:12:46;;;;;;;14.60;13.25;;;10.10;99.90;;;;;;5025127;28;20030;-84
2023/02/03 01:15:12;;;;;;;14.15;12.82;;;10.10;99.90;;;;;;4980701;28;20026;-84
2023/02/03 01:17:38;;;;;;;13.95;12.70;;;10.10;99.90;;;;;;5013980;28;20080;-84
2023/02/03 01:20:05;;;;;;;16.52;13.38;;;10.00;99.90;;;;;;5007666;28;20469;-85
2023/02/03 01:22:31;;;;;;;14.30;12.77;;;10.00;99.90;;;;;;5033483;28;20041;-84
2023/02/03 01:24:57;;;;;;;14.90;13.52;;;10.00;99.90;;;;;;5029857;28;20032;-84
2023/02/03 01:27:23;;;;;;;14.63;13.25;;;10.10;99.90;;;;;;4987332;28;20037;-85
2023/02/03 01:29:49;;;;;;;13.80;12.70;;;10.10;99.90;;;;;;5010474;28;20386;-84
2023/02/03 01:32:15;;;;;;;14.57;13.35;;;10.10;99.90;;;;;;5027024;28;20040;-85
2023/02/03 01:34:41;;;;;;;14.20;12.98;;;10.10;99.90;;;;;;5032902;28;20041;-84
2023/02/03 01:37:07;;;;;;;18.15;13.18;;;10.20;99.90;;;;;;5033399;28;20029;-84
2023/02/03 01:39:33;;;;;;;13.77;12.77;;;10.20;99.90;;;;;;5001266;28;20059;-84
2023/02/03 01:42:00;;;;;;;16.10;13.73;;;10.20;99.90;;;;;;5013058;28;20037;-85
2023/02/03 01:44:46;;;;;;;14.65;13.40;;;10.30;99.90;;;;;;5010707;28;20034;-84
2023/02/03 01:48:03;;;;;;;15.52;14.02;;;10.30;99.90;;;;;;5021390;28;20030;-84
2023/02/03 01:50:31;;;;;;;15.32;13.77;;;10.20;99.90;;;;;;4992012;28;20042;-84
2023/02/03 01:53:00;;;;;;;14.57;13.30;;;9.90;99.90;;;;;;5014426;28;20485;-85
2023/02/03 01:55:29;;;;;;;13.70;12.55;;;9.90;99.90;;;;;;5015108;28;20036;-84
2023/02/03 01:58:00;;;;;;;13.95;12.63;;;10.00;99.90;;;;;;5013899;28;20030;-84
2023/02/03 02:00:26;;;;;;;13.38;12.43;;;9.90;99.90;;;;;;5002849;28;20048;-84
2023/02/03 02:02:53;;;;;;;13.95;12.80;;;10.00;99.90;;;;;;5001327;28;20026;-84
2023/02/03 02:05:29;;;;;;;14.20;13.07;;;9.80;99.90;;;;;;5002904;28;20033;-84
2023/02/03 02:07:56;;;;;;;14.60;13.35;;;9.90;99.90;;;;;;5014230;28;20104;-84
2023/02/03 02:10:22;;;;;;;14.27;13.15;;;9.90;99.90;;;;;;5008779;28;20040;-85
2023/02/03 02:12:48;;;;;;;14.98;13.02;;;9.90;99.90;;;;;;4995988;28;20035;-83
2023/02/03 02:15:14;;;;;;;15.38;13.98;;;10.10;99.90;;;;;;4995058;28;20029;-84
2023/02/03 02:17:52;;;;;;;14.40;13.05;;;10.10;99.90;;;;;;5008188;28;20375;-84
2023/02/03 02:20:56;;;;;;;14.65;13.43;;;10.10;99.90;;;;;;5022837;28;20386;-84
2023/02/03 02:23:45;;;;;;;14.05;12.57;;;10.10;99.90;;;;;;5014394;28;20037;-84
2023/02/03 02:26:23;;;;;;;15.55;14.02;;;10.10;99.90;;;;;;5030865;28;20079;-84
2023/02/03 02:29:01;;;;;;;15.32;13.40;;;10.20;99.90;;;;;;5013162;28;20394;-84
2023/02/03 02:31:27;;;;;;;13.70;12.60;;;10.20;99.90;;;;;;5010427;28;20047;-85
2023/02/03 02:34:18;;;;;;;13.65;12.45;;;10.20;99.90;;;;;;5025602;28;20030;-84
2023/02/03 02:37:16;;;;;;;15.80;13.80;;;10.20;99.90;;;;;;5032498;28;20033;-84
2023/02/03 02:39:55;;;;;;;14.07;12.82;;;10.20;99.90;;;;;;5014277;28;20038;-84
2023/02/03 02:42:59;;;;;;;13.20;11.85;;;10.20;99.90;;;;;;4987203;28;20390;-84
2023/02/03 02:45:30;;;;;;;13.90;12.60;;;10.10;99.90;;;;;;4971099;28;20079;-84
2023/02/03 02:48:01;;;;;;;13.35;12.25;;;10.10;99.90;;;;;;4929174;29;20042;-84
2023/02/03 02:50:29;;;;;;;13.75;12.52;;;10.00;99.90;;;;;;4932961;28;20543;-84
2023/02/03 02:52:55;;;;;;;14.05;12.35;;;10.00;99.90;;;;;;4954565;28;20027;-83
2023/02/03 02:55:26;;;;;;;13.93;12.80;;;10.00;99.90;;;;;;4957019;28;20049;-84
2023/02/03 02:57:53;;;;;;;14.50;13.15;;;10.10;99.90;;;;;;4947786;28;20034;-84
2023/02/03 03:00:20;;;;;;;13.25;12.07;;;10.00;99.90;;;;;;4952080;28;20043;-84
2023/02/03 03:02:46;;;;;;;13.50;12.35;;;10.00;99.90;;;;;;4955845;28;20039;-84
2023/02/03 03:05:12;;;;;;;14.63;12.55;;;10.00;99.90;;;;;;4970710;28;20043;-84
2023/02/03 03:07:44;;;;;;;13.45;12.45;;;9.90;99.90;;;;;;4953449;28;20420;-84
2023/02/03 03:10:11;;;;;;;14.48;13.23;;;9.90;99.90;;;;;;4955494;28;20050;-84
2023/02/03 03:12:40;;;;;;;14.65;13.00;;;10.00;99.90;;;;;;4954421;28;20270;-84
2023/02/03 03:15:08;;;;;;;13.20;12.10;;;10.00;99.90;;;;;;4946050;28;20495;-85
2023/02/03 03:17:41;;;;;;;13.65;12.40;;;10.10;99.90;;;;;;4957338;28;20396;-84
2023/02/03 03:20:10;;;;;;;14.48;13.15;;;10.10;99.90;;;;;;4956595;28;20045;-85
2023/02/03 03:22:41;;;;;;;14.10;12.65;;;10.10;99.90;;;;;;4987586;28;20041;-85
2023/02/03 03:25:13;;;;;;;13.88;12.48;;;10.00;99.90;;;;;;4986647;28;20025;-84
2023/02/03 03:27:41;;;;;;;13.52;12.32;;;10.00;99.90;;;;;;5013862;28;20041;-85
2023/02/03 03:30:08;;;;;;;14.10;12.68;;;10.00;99.90;;;;;;5006704;28;20060;-84
2023/02/03 03:32:34;;;;;;;13.80;12.40;;;9.90;99.90;;;;;;5014888;28;20038;-84
2023/02/03 03:35:01;;;;;;;13.85;12.65;;;9.90;99.90;;;;;;5009452;28;20036;-83
2023/02/03 03:37:44;;;;;;;14.38;12.90;;;9.90;99.90;;;;;;4999925;28;20033;-84
2023/02/03 03:40:23;;;;;;;14.02;12.45;;;10.00;99.90;;;;;;5018236;28;20044;-84
2023/02/03 03:42:58;;;;;;;14.00;12.50;;;10.00;99.90;;;;;;5033160;28;20046;-84
2023/02/03 03:45:28;;;;;;;13.65;12.43;;;10.00;99.90;;;;;;5040663;28;20014;-83
2023/02/03 03:48:36;;;;;;;13.65;12.52;;;10.00;99.90;;;;;;5053717;28;20377;-84
2023/02/03 03:51:05;;;;;;;16.02;13.10;;;10.00;99.90;;;;;;4926754;29;20040;-84
2023/02/03 03:53:32;;;;;;;15.57;13.63;;;10.00;99.90;;;;;;4903788;29;20047;-84
2023/02/03 03:55:59;;;;;;;15.07;13.40;;;10.00;99.90;;;;;;4935064;29;20043;-83
2023/02/03 03:58:29;;;;;;;13.90;12.57;;;10.00;99.90;;;;;;4902800;29;20039;-84
2023/02/03 04:00:57;;;;;;;14.45;13.00;;;9.90;99.90;;;;;;4943578;29;20031;-83
2023/02/03 04:03:25;;;;;;;15.05;12.80;;;9.90;99.90;;;;;;4927324;29;20038;-84
2023/02/03 04:05:51;;;;;;;15.77;13.77;;;9.80;99.90;;;;;;4944736;29;20044;-84
2023/02/03 04:08:17;;;;;;;17.67;12.82;;;9.80;99.90;;;;;;4947758;29;20036;-84
2023/02/03 04:10:44;;;;;;;16.25;13.40;;;9.80;99.90;;;;;;4960153;29;20044;-85
2023/02/03 04:13:10;;;;;;;14.73;13.45;;;9.80;99.90;;;;;;4944934;29;20042;-86
2023/02/03 04:15:36;;;;;;;16.10;13.23;;;9.90;99.90;;;;;;4955183;28;20022;-85
2023/02/03 04:18:03;;;;;;;14.60;13.27;;;9.90;99.90;;;;;;4906640;29;20036;-85
2023/02/03 04:20:30;;;;;;;14.50;13.20;;;9.90;99.90;;;;;;4917385;29;20067;-82
2023/02/03 04:22:56;;;;;;;15.15;13.43;;;9.80;99.90;;;;;;4923549;29;20039;-84
2023/02/03 04:25:22;;;;;;;14.70;13.20;;;9.80;99.90;;;;;;4927068;28;20036;-84
2023/02/03 04:27:49;;;;;;;13.80;12.60;;;9.80;99.90;;;;;;5015667;28;20013;-85
2023/02/03 04:30:17;;;;;;;13.55;12.52;;;9.80;99.90;;;;;;5022430;28;20032;-82
2023/02/03 04:32:44;;;;;;;14.13;12.80;;;9.70;99.90;;;;;;5022764;28;20028;-82
2023/02/03 04:35:10;;;;;;;14.02;12.68;;;9.70;99.90;;;;;;5020559;28;20041;-83
2023/02/03 04:37:36;;;;;;;14.57;13.15;;;9.70;99.90;;;;;;5022746;28;20034;-85
2023/02/03 04:40:03;;;;;;;16.38;13.43;;;9.70;99.90;;;;;;4980134;28;20034;-85
2023/02/03 04:42:29;;;;;;;14.80;13.38;;;9.70;99.90;;;;;;4999468;28;20026;-84
2023/02/03 04:44:55;;;;;;;14.27;12.77;;;9.70;99.90;;;;;;5010039;28;20034;-84
2023/02/03 04:47:21;;;;;;;14.25;12.80;;;9.50;99.90;;;;;;5007753;28;20731;-85
2023/02/03 04:49:47;;;;;;;14.40;12.93;;;9.50;99.90;;;;;;4995257;28;20042;-84
2023/02/03 04:52:13;;;;;;;14.68;13.45;;;9.60;99.90;;;;;;5021350;28;20045;-85
2023/02/03 04:54:39;;;;;;;93.40;17.83;;;9.60;99.90;;;;;;5013231;28;20044;-84
2023/02/03 04:57:05;;;;;;;22.23;14.80;;;9.60;99.90;;;;;;5015290;28;20034;-84
2023/02/03 04:59:32;;;;;;;14.63;13.18;;;9.60;99.90;;;;;;4999253;28;20041;-85
2023/02/03 05:02:00;;;;;;;14.90;13.70;;;9.70;99.90;;;;;;4998195;28;20042;-84
2023/02/03 05:04:26;;;;;;;14.63;13.27;;;9.60;99.90;;;;;;4996670;28;20046;-84
2023/02/03 05:06:52;;;;;;;14.38;13.00;;;9.60;99.90;;;;;;4995837;28;20400;-84
2023/02/03 05:09:18;;;;;;;14.23;13.00;;;9.60;99.90;;;;;;4995872;28;20189;-84
2023/02/03 05:11:44;;;;;;;14.48;13.05;;;9.70;99.90;;;;;;4996046;28;20518;-84
2023/02/03 05:14:10;;;;;;;15.07;13.88;;;9.70;99.90;;;;;;4996719;28;20034;-85
2023/02/03 05:16:36;;;;;;;14.95;13.55;;;9.60;99.90;;;;;;5004957;28;20118;-85
2023/02/03 05:19:02;;;;;;;15.27;13.63;;;9.60;99.90;;;;;;5012613;28;20026;-84
2023/02/03 05:21:29;;;;;;;14.07;12.52;;;9.50;99.90;;;;;;4999008;28;20049;-84
2023/02/03 05:23:55;;;;;;;14.25;12.95;;;9.40;99.90;;;;;;5014557;28;20064;-84
2023/02/03 05:26:21;;;;;;;14.27;13.05;;;9.30;99.90;;;;;;5012560;28;20042;-85
2023/02/03 05:28:47;;;;;;;13.55;12.32;;;9.30;99.90;;;;;;4994569;28;20041;-84
2023/02/03 05:31:13;;;;;;;15.77;14.23;;;9.40;99.90;;;;;;5008464;28;20487;-85
2023/02/03 05:33:39;;;;;;;14.75;13.40;;;9.40;99.90;;;;;;4994067;28;20042;-84
2023/02/03 05:36:05;;;;;;;14.10;12.70;;;9.50;99.90;;;;;;4992999;28;20472;-84
2023/02/03 05:38:31;;;;;;;13.43;12.43;;;9.60;99.90;;;;;;5007379;28;20401;-84
2023/02/03 05:43:42;;;;;;;14.13;13.00;;;9.70;99.90;;;;;;5018983;28;20040;-85
2023/02/03 05:46:08;;;;;;;13.68;12.63;;;9.70;99.90;;;;;;5022020;28;20037;-85
2023/02/03 05:48:34;;;;;;;14.68;13.50;;;9.60;99.90;;;;;;4999603;28;20037;-84
2023/02/03 05:51:00;;;;;;;14.40;13.25;;;9.60;99.90;;;;;;5018149;28;20029;-84
2023/02/03 05:53:26;;;;;;;15.40;13.85;;;9.70;99.90;;;;;;5016851;28;20045;-84
2023/02/03 05:55:53;;;;;;;13.95;12.65;;;9.80;99.90;;;;;;5012888;28;20049;-85
2023/02/03 05:58:19;;;;;;;14.77;13.43;;;9.80;99.90;;;;;;5030573;28;20038;-85
2023/02/03 06:00:46;;;;;;;14.02;12.82;;;9.80;99.90;;;;;;5011193;28;20514;-84
2023/02/03 06:03:12;;;;;;;14.52;13.32;;;9.80;99.90;;;;;;4994781;28;20510;-85
2023/02/03 06:05:39;;;;;;;14.05;12.82;;;9.80;99.90;;;;;;5009164;28;20042;-84
2023/02/03 06:08:06;;;;;;;14.73;13.45;;;9.80;99.90;;;;;;5023394;28;20030;-85
2023/02/03 06:10:32;;;;;;;14.50;13.38;;;9.70;99.90;;;;;;5014403;28;20033;-84
2023/02/03 06:12:59;;;;;;;14.30;13.02;;;9.60;99.90;;;;;;4997716;28;20056;-84
2023/02/03 06:15:25;;;;;;;14.23;12.82;;;9.40;99.90;;;;;;5016378;28;20379;-84
2023/02/03 06:17:51;;;;;;;14.07;13.00;;;9.50;99.90;;;;;;5016409;28;20036;-84
2023/02/03 06:20:18;;;;;;;12.82;11.80;;;9.60;99.90;;;;;;5033677;28;20382;-84
2023/02/03 06:22:44;;;;;;;12.98;11.73;;;9.50;99.90;;;;;;4998677;28;20478;-84
2023/02/03 06:25:10;;;;;;;13.77;12.60;;;9.50;99.90;;;;;;4995523;28;20030;-84
2023/02/03 06:27:36;;;;;;;13.15;12.05;;;9.50;99.90;;;;;;5014315;28;20037;-85
2023/02/03 06:30:03;;;;;;;17.30;15.70;;;9.40;99.90;;;;;;4997258;28;20032;-84
2023/02/03 06:32:29;;;;;;;16.65;15.18;;;9.40;99.90;;;;;;5005802;28;20057;-84
2023/02/03 06:34:55;;;;;;;21.27;19.58;;;9.50;99.90;;;;;;5013787;28;20375;-84
2023/02/03 06:37:21;;;;;;;18.15;16.60;;;9.60;99.90;;;;;;5011454;28;20036;-84
2023/02/03 06:39:47;;;;;;;15.48;13.70;;;9.60;99.90;;;;;;5004892;28;20694;-84
2023/02/03 06:42:14;;;;;;;13.90;12.77;;;9.70;99.90;;;;;;4993154;28;20042;-84
2023/02/03 06:44:40;;;;;;;14.07;13.07;;;9.70;99.90;;;;;;4999888;28;20479;-84
2023/02/03 06:47:06;;;;;;;14.00;13.00;;;9.70;99.90;;;;;;5012335;28;20045;-85
2023/02/03 06:49:32;;;;;;;13.98;12.70;;;9.70;99.90;;;;;;5013307;28;20038;-86
2023/02/03 06:51:58;;;;;;;13.05;12.15;;;9.70;99.90;;;;;;5002832;28;20030;-85
2023/02/03 06:54:24;;;;;;;15.35;13.95;;;9.80;99.90;;;;;;5005991;28;20029;-85
2023/02/03 06:56:50;;;;;;;13.45;12.52;;;9.80;99.90;;;;;;5010155;28;20037;-82
2023/02/03 06:59:16;;;;;;;15.85;14.65;;;9.70;99.90;;;;;;5008495;28;20026;-85
2023/02/03 07:01:42;;;;;;;16.60;14.98;;;9.60;99.90;;;;;;4998346;28;20053;-84
2023/02/03 07:04:09;;;;;;;14.55;13.55;;;9.50;99.90;;;;;;5000887;28;20085;-84
2023/02/03 07:06:35;;;;;;;13.73;12.73;;;9.40;99.90;;;;;;5009406;28;20054;-84
2023/02/03 07:09:02;;;;;;;12.80;11.93;;;9.40;99.90;;;;;;5028845;28;20455;-83
2023/02/03 07:11:28;;;;;;;13.57;12.45;;;9.50;99.90;;;;;;5011260;28;20190;-85
2023/02/03 07:13:54;;;;;;;14.23;13.02;;;9.50;99.90;;;;;;4978977;28;20399;-83
2023/02/03 07:16:20;;;;;;;14.43;13.43;;;9.50;99.90;;;;;;5012064;28;20476;-85
2023/02/03 07:18:46;;;;;;;14.38;13.30;;;9.60;99.90;;;;;;5011235;28;20037;-85
2023/02/03 07:21:13;;;;;;;14.43;13.23;;;9.70;99.90;;;;;;5005273;28;20040;-85
2023/02/03 07:23:39;;;;;;;13.95;12.95;;;9.70;99.90;;;;;;5012641;28;20402;-84
2023/02/03 07:26:05;;;;;;;13.60;12.70;;;9.70;99.90;;;;;;4998216;28;20482;-85
2023/02/03 07:28:32;;;;;;;12.98;12.07;;;9.70;99.90;;;;;;5031928;28;20036;-86
2023/02/03 07:30:59;;;;;;;13.50;12.60;;;9.70;99.90;;;;;;5013027;28;20046;-89
2023/02/03 07:33:26;;;;;;;12.60;11.65;;;9.70;99.90;;;;;;5030883;28;20032;-89
2023/02/03 07:35:53;;;;;;;13.65;12.65;;;9.70;99.90;;;;;;5032106;28;20032;-91
2023/02/03 07:38:19;;;;;;;13.18;12.18;;;9.70;99.90;;;;;;5014474;28;20041;-88
2023/02/03 07:40:45;;;;;;;13.10;12.10;;;9.80;99.90;;;;;;5014507;28;20036;-89
2023/02/03 07:43:12;;;;;;;14.43;12.93;;;9.80;99.90;;;;;;5035456;28;20080;-87
2023/02/03 07:45:38;;;;;;;13.55;12.40;;;9.80;99.90;;;;;;5014036;28;20038;-87
2023/02/03 07:48:04;;;;;;;13.85;12.77;;;9.70;99.90;;;;;;5014070;28;20060;-89
2023/02/03 07:50:31;;;;;;;13.82;12.80;;;9.70;99.90;;;;;;5015807;28;20387;-88
2023/02/03 07:52:58;;;;;;;13.40;12.50;;;9.70;99.90;;;;;;5014645;28;20038;-92
2023/02/03 07:55:24;;;;;;;14.25;13.25;;;9.70;99.90;;;;;;5031824;28;20030;-90
2023/02/03 07:57:53;;;;;;;14.75;13.55;;;9.60;99.90;;;;;;5030826;28;20463;-91
2023/02/03 08:00:19;;;;;;;14.63;13.50;;;9.60;99.90;;;;;;5015202;28;20045;-88
2023/02/03 08:02:46;;;;;;;14.35;13.13;;;9.60;99.90;;;;;;5014479;28;20046;-89
2023/02/03 08:05:12;;;;;;;127.40;20.23;;;9.70;99.90;;;;;;5012139;28;20053;-87
2023/02/03 08:07:38;;;;;;;13.93;13.02;;;9.80;99.90;;;;;;4992036;28;20053;-88
2023/02/03 08:10:05;;;;;;;13.65;12.35;;;9.90;99.90;;;;;;5013848;28;20042;-86
2023/02/03 08:12:31;;;;;;;13.05;12.15;;;9.90;99.90;;;;;;4996764;28;20038;-92
2023/02/03 08:14:57;;;;;;;14.00;12.63;;;9.90;99.90;;;;;;5017894;28;20030;-90
2023/02/03 08:17:23;;;;;;;14.38;12.70;;;9.90;99.90;;;;;;5014344;28;20041;-92
2023/02/03 08:19:49;;;;;;;14.90;13.70;;;9.90;99.90;;;;;;5017251;28;20037;-89
2023/02/03 08:22:16;;;;;;;14.15;13.07;;;9.90;99.90;;;;;;5030255;28;20455;-89
2023/02/03 08:24:44;;;;;;;13.43;12.57;;;9.90;99.90;;;;;;5012211;28;20451;-88
2023/02/03 08:27:15;;;;;;;12.70;11.90;;;9.90;99.90;;;;;;5000139;28;20033;-91
2023/02/03 08:29:42;;;;;;;15.48;14.20;;;9.90;99.90;;;;;;5029648;28;20041;-88
2023/02/03 08:32:12;;;;;;;14.85;13.68;;;9.90;99.90;;;;;;4996794;28;20398;-88
2023/02/03 08:34:38;;;;;;;16.15;14.93;;;10.00;99.90;;;;;;4995259;28;20041;-89
2023/02/03 08:37:05;;;;;;;22.48;20.15;;;10.00;99.90;;;;;;5027340;28;20395;-89
2023/02/03 08:39:32;;;;;;;15.73;14.52;;;10.10;99.90;;;;;;5006974;28;20041;-89
2023/02/03 08:41:58;;;;;;;16.42;15.10;;;10.10;99.90;;;;;;4997556;28;20073;-87
2023/02/03 08:44:24;;;;;;;16.58;13.57;;;10.30;99.90;;;;;;4990529;28;20030;-89
2023/02/03 08:46:51;;;;;;;14.38;13.48;;;10.30;99.90;;;;;;5005660;28;20383;-86
2023/02/03 08:49:18;;;;;;;14.23;13.00;;;10.20;99.90;;;;;;5007236;28;20034;-89
2023/02/03 08:51:45;;;;;;;14.07;12.98;;;10.10;99.90;;;;;;5015299;28;20033;-88
2023/02/03 08:54:11;;;;;;;13.52;12.73;;;10.10;99.90;;;;;;5007705;28;20029;-89
2023/02/03 08:56:37;;;;;;;13.02;12.18;;;10.10;99.90;;;;;;5017702;28;20042;-87
2023/02/03 08:59:03;;;;;;;15.80;14.70;;;10.10;99.90;;;;;;4993614;28;20049;-85
2023/02/03 09:01:29;;;;;;;14.88;13.90;;;10.00;99.90;;;;;;4993074;28;20042;-86
2023/02/03 09:03:56;;;;;;;14.68;13.65;;;10.00;99.90;;;;;;4993862;28;20046;-86
2023/02/03 09:06:22;;;;;;;14.07;13.02;;;10.00;99.90;;;;;;4978292;28;20074;-86
2023/02/03 09:08:48;;;;;;;13.60;12.48;;;10.00;99.90;;;;;;5006960;28;20023;-85
2023/02/03 09:11:16;;;;;;;14.27;13.18;;;10.00;99.90;;;;;;4993268;28;20057;-86
2023/02/03 09:13:44;;;;;;;33.72;13.50;;;10.20;99.90;;;;;;5004684;28;20029;-86
2023/02/03 09:16:12;;;;;;;13.70;12.30;;;10.30;99.90;;;;;;5011509;28;20030;-84
2023/02/03 09:18:38;;;;;;;14.13;13.10;;;10.20;99.90;;;;;;5012360;28;20029;-84
2023/02/03 09:21:06;;;;;;;13.95;12.88;;;10.20;99.90;;;;;;5005409;28;20507;-83
2023/02/03 09:23:32;;;;;;;14.68;13.27;;;10.30;99.90;;;;;;5008205;28;20030;-84
2023/02/03 09:26:04;;;;;;;13.68;12.73;;;10.40;99.90;;;;;;4996514;28;20480;-83
2023/02/03 09:28:30;;;;;;;;;;;10.40;99.90;;;;;;4980854;28;20053;-83
2023/02/03 09:31:03;;;;;;;41.58;14.45;;;10.50;99.90;;;;;;5031393;28;19920;-83
2023/02/03 09:33:29;;;;;;;66.90;16.70;;;10.60;99.90;;;;;;5006241;28;20528;-83
2023/02/03 09:35:55;;;;;;;15.40;14.40;;;10.60;99.90;;;;;;4996759;28;20483;-83
2023/02/03 09:38:22;;;;;;;15.32;14.13;;;10.50;99.90;;;;;;5014863;28;20466;-83
2023/02/03 09:40:58;;;;;;;14.80;14.00;;;10.50;99.90;;;;;;5031558;28;20498;-83
2023/02/03 09:43:34;;;;;;;14.60;13.60;;;10.50;99.90;;;;;;5032092;28;20498;-83
2023/02/03 09:46:06;;;;;;;13.73;12.93;;;10.50;99.90;;;;;;5021754;28;20049;-84
2023/02/03 09:48:41;;;;;;;15.13;14.10;;;10.50;99.90;;;;;;4988639;28;20038;-85
2023/02/03 09:51:35;;;;;;;15.38;14.10;;;10.60;99.90;;;;;;4977355;28;20030;-89
2023/02/03 09:54:15;;;;;;;20.33;13.48;;;10.80;99.90;;;;;;4996764;28;20053;-88
2023/02/03 09:56:45;;;;;;;14.20;13.30;;;10.80;99.90;;;;;;4966696;28;20034;-91
2023/02/03 09:59:11;;;;;;;15.68;14.10;;;10.80;99.90;;;;;;4980986;28;20026;-91
2023/02/03 10:01:42;;;;;;;14.15;13.35;;;10.90;99.90;;;;;;4993121;28;20037;-89
2023/02/03 10:04:32;;;;;;;;;;;10.90;99.90;;;;;;5005044;28;20046;-87
2023/02/03 10:07:07;;;;;;;14.65;13.75;;;11.00;99.90;;;;;;5011657;28;20366;-87
2023/02/03 10:09:43;;;;;;;14.43;13.43;;;11.00;99.90;;;;;;4988262;28;20032;-86
2023/02/03 10:12:21;;;;;;;13.80;12.68;;;11.00;99.90;;;;;;5016427;28;20040;-86
2023/02/03 10:15:31;;;;;;;13.50;12.68;;;11.10;99.90;;;;;;5032524;28;20509;-85
2023/02/03 10:18:00;;;;;;;14.77;13.52;;;11.00;99.90;;;;;;5006062;28;20038;-86
2023/02/03 10:20:53;;;;;;;16.17;15.20;;;11.00;99.90;;;;;;4980812;28;20033;-87
2023/02/03 10:23:25;;;;;;;17.13;16.02;;;11.00;99.90;;;;;;5025356;28;20054;-83
2023/02/03 10:25:55;;;;;;;17.20;16.02;;;11.00;99.90;;;;;;4995693;28;20029;-84
2023/02/03 10:28:23;;;;;;;15.50;14.63;;;11.10;99.90;;;;;;4980193;28;20021;-84
2023/02/03 10:30:57;;;;;;;17.50;16.55;;;11.20;99.90;;;;;;4995461;28;20037;-85
2023/02/03 10:33:28;;;;;;;17.05;16.05;;;11.20;99.90;;;;;;5005932;28;20026;-83
2023/02/03 10:36:03;;;;;;;14.23;13.13;;;11.30;99.90;;;;;;4995296;28;20529;-84
2023/02/03 10:38:40;;;;;;;52.97;34.13;;;11.30;99.90;;;;;;5032089;28;20494;-83
2023/02/03 10:41:06;;;;;;;17.83;16.52;;;11.30;99.90;;;;;;5032288;28;20029;-83
2023/02/03 10:43:47;;;;;;;14.23;13.00;;;11.30;99.90;;;;;;5031231;28;20041;-82
2023/02/03 10:46:14;;;;;;;15.43;14.50;;;11.40;99.90;;;;;;4998698;28;20395;-85
2023/02/03 10:48:40;;;;;;;14.07;13.27;;;11.40;99.90;;;;;;4994956;28;20040;-84
2023/02/03 10:51:22;;;;;;;15.60;14.50;;;11.50;99.90;;;;;;4999535;28;20410;-85
2023/02/03 10:53:52;;;;;;;13.95;13.05;;;11.50;99.90;;;;;;5011090;28;20045;-86
2023/02/03 10:56:35;;;;;;;14.23;13.23;;;11.50;99.90;;;;;;5002037;28;20034;-87
2023/02/03 10:59:01;;;;;;;13.75;12.95;;;11.50;99.90;;;;;;5006943;28;20378;-90
2023/02/03 11:01:41;;;;;;;13.52;12.65;;;11.50;99.90;;;;;;5010092;28;20056;-86
2023/02/03 11:04:29;;;;;;;13.48;12.48;;;11.50;99.90;;;;;;5013184;28;20042;-86
2023/02/03 11:07:05;;;;;;;14.82;14.02;;;11.50;99.90;;;;;;5005912;28;20021;-86
2023/02/03 11:09:37;;;;;;;14.40;13.38;;;11.60;99.90;;;;;;5013923;28;20040;-88
2023/02/03 11:12:04;;;;;;;;;;;11.60;99.90;;;;;;5010377;28;20037;-88
2023/02/03 11:14:36;;;;;;;14.07;13.10;;;11.70;99.90;;;;;;5016082;28;19909;-87
2023/02/03 11:17:14;;;;;;;15.27;14.15;;;11.80;99.90;;;;;;5015450;28;20502;-90
2023/02/03 11:19:45;;;;;;;13.93;13.23;;;11.80;99.90;;;;;;5018195;28;20382;-86
2023/02/03 11:22:12;;;;;;;14.35;13.45;;;11.80;99.90;;;;;;5017390;28;20042;-87
2023/02/03 11:24:39;;;;;;;14.07;13.38;;;11.90;99.90;;;;;;5001334;28;20033;-87
2023/02/03 11:27:08;;;;;;;14.10;13.20;;;11.90;99.90;;;;;;5016523;28;20025;-90
2023/02/03 11:29:39;;;;;;;15.05;14.05;;;12.00;99.90;;;;;;5015612;28;20378;-87
2023/02/03 11:32:17;;;;;;;15.85;14.68;;;12.10;99.90;;;;;;5015237;28;20032;-87
2023/02/03 11:34:58;;;;;;;14.35;13.45;;;12.20;99.90;;;;;;5019462;28;20032;-87
2023/02/03 11:37:38;;;;;;;15.57;14.57;;;12.10;99.90;;;;;;5006900;28;20026;-87
2023/02/03 11:40:07;;;;;;;16.83;15.75;;;12.00;99.90;;;;;;5006812;28;20309;-87
2023/02/03 11:42:34;;;;;;;14.60;13.70;;;12.10;99.90;;;;;;5034915;28;20052;-87
2023/02/03 11:45:25;;;;;;;14.20;13.18;;;12.10;99.90;;;;;;5016718;28;20060;-87
2023/02/03 11:47:57;;;;;;;15.35;14.48;;;12.20;99.90;;;;;;5032971;28;20046;-87
2023/02/03 11:50:50;;;;;;;17.63;16.42;;;12.20;99.90;;;;;;5017102;28;20038;-87
2023/02/03 11:53:28;;;;;;;15.35;14.43;;;12.20;99.90;;;;;;5029179;28;20360;-85
2023/02/03 11:56:18;;;;;;;14.23;13.43;;;12.30;99.90;;;;;;5015153;28;20026;-85
2023/02/03 11:58:53;;;;;;;15.23;13.95;;;12.30;99.90;;;;;;5014648;28;20026;-85
2023/02/03 12:01:42;;;;;;;14.88;14.05;;;12.30;99.90;;;;;;5014828;28;20042;-85
2023/02/03 12:04:17;;;;;;;16.83;15.52;;;12.30;99.90;;;;;;5014280;28;20049;-84
2023/02/03 12:07:02;;;;;;;15.70;14.15;;;12.40;99.90;;;;;;5000735;28;20040;-84
2023/02/03 12:09:39;;;;;;;15.07;14.13;;;12.40;99.90;;;;;;5006832;28;20030;-85
2023/02/03 12:12:36;;;;;;;15.43;14.52;;;12.50;99.90;;;;;;5014535;28;20476;-85
2023/02/03 12:15:12;;;;;;;14.18;13.27;;;12.50;99.90;;;;;;4981240;28;20045;-84
2023/02/03 12:18:12;;;;;;;15.27;14.27;;;12.40;99.90;;;;;;5000872;28;20048;-84
2023/02/03 12:21:04;;;;;;;15.25;14.15;;;12.40;99.90;;;;;;5021173;28;20379;-85
2023/02/03 12:24:03;;;;;;;14.23;13.32;;;12.50;99.90;;;;;;5011095;28;20060;-85
2023/02/03 12:26:45;;;;;;;15.80;14.48;;;12.40;99.90;;;;;;4996332;28;20034;-84
2023/02/03 12:29:14;;;;;;;14.43;13.52;;;12.40;99.90;;;;;;5001317;28;20037;-85
2023/02/03 12:31:46;;;;;;;14.73;13.85;;;12.50;99.90;;;;;;5010079;28;20030;-85
2023/02/03 12:34:15;;;;;;;14.52;13.82;;;12.50;99.90;;;;;;5007666;28;20026;-86
2023/02/03 12:36:52;;;;;;;15.68;14.68;;;12.50;99.90;;;;;;5005091;28;20056;-84
2023/02/03 12:39:20;;;;;;;15.95;14.75;;;12.50;99.90;;;;;;4999368;28;20037;-84
2023/02/03 12:42:13;;;;;;;15.93;14.60;;;12.50;99.90;;;;;;5015839;28;20032;-84
2023/02/03 12:44:56;;;;;;;14.20;13.35;;;12.60;99.90;;;;;;4972804;28;20216;-84
2023/02/03 12:47:36;;;;;;;15.85;14.88;;;12.70;99.90;;;;;;4972517;28;20034;-84
2023/02/03 12:50:06;;;;;;;18.80;17.40;;;12.70;99.90;;;;;;4972972;28;20504;-84